Karla A — TCCR8 — position and weather

sailwx.info

Track history (hours):
 
Tides and Currents Weather Stations Pressure Air Temp Water Temp Dewpoint Dewpoint Depression Visibility Wind Speed Wind Dir Waves Ship Positions

Karla A

Last reported at 2015-May-28 05:21 UTC. Time now 2015-May-29 00:15 UTC.
Position N 31°53' E 031°42'.

Length 155 m; draft 8.2 m.

Type: Ship (hazmat cat A). MMSI: 271000744.

Date/timePositionNaut miles runAvg speedWind from/ knotsBaromVisibWave heightAir tempDewpointWater temp
2015-May-28 05:21N 31°53' E 031°42'911.3
2015-May-28 04:33N 31°48' E 031°51'1111.3
2015-May-28 03:33N 31°42' E 032°02'1211.8
2015-May-28 02:33N 31°34' E 032°12'1111.1
2015-May-28 01:33N 31°27' E 032°22'1010.4
2015-May-28 00:33N 31°17' E 032°22'4 1.7
2015-May-27 22:16N 31°13' E 032°21'0 0.0
2015-May-27 20:25N 31°13' E 032°21'0 0.0
2015-May-27 18:27N 31°13' E 032°21'0 0.0
2015-May-27 17:32N 31°13' E 032°21'0 0.0
2015-May-27 16:20N 31°13' E 032°21'9 0.8
2015-May-27 05:34N 31°21' E 032°18'0 0.0
2015-May-27 04:33N 31°21' E 032°18'5 4.6
2015-May-27 03:33N 31°17' E 032°20'4 3.3
2015-May-27 02:26N 31°14' E 032°18'0 0.0
2015-May-27 01:32N 31°14' E 032°18'0 0.0
2015-May-27 00:31N 31°14' E 032°18'0 0.0
2015-May-26 23:19N 31°14' E 032°18'0 0.0
2015-May-26 22:28N 31°14' E 032°18'0 0.0
2015-May-26 21:33N 31°14' E 032°18'0 0.0
2015-May-26 20:33N 31°14' E 032°18'0 0.0
2015-May-26 19:23N 31°14' E 032°18'0 0.0
2015-May-26 18:32N 31°14' E 032°18'0 0.0
2015-May-26 17:28N 31°14' E 032°18'0 0.0
2015-May-26 16:25N 31°14' E 032°18'0 0.0
2015-May-26 15:28N 31°14' E 032°18'0 0.0
2015-May-26 14:33N 31°14' E 032°18'0 0.0
2015-May-26 13:24N 31°14' E 032°18'0 0.0
2015-May-26 12:32N 31°14' E 032°18'0 0.0
2015-May-26 11:32N 31°14' E 032°18'3 2.6
2015-May-26 10:34N 31°17' E 032°20'6 5.7
2015-May-26 09:34N 31°22' E 032°22'3 3.0
2015-May-26 08:33N 31°25' E 032°21'7 7.3
2015-May-26 07:34N 31°31' E 032°16'1412.8
2015-May-26 06:29N 31°39' E 032°04'910.0
2015-May-26 05:34N 31°41' E 031°53'1110.6
2015-May-26 04:29N 31°31' E 031°46'4 3.8
2015-May-26 03:31N 31°27' E 031°46'0 0.0
2015-May-26 02:28N 31°27' E 031°46'0 0.0
2015-May-26 01:31N 31°27' E 031°46'0 0.0
2015-May-26 00:15N 31°27' E 031°46'0 0.0
2015-May-25 23:33N 31°27' E 031°46'0 0.0
2015-May-25 20:31N 31°27' E 031°46'0 0.0
2015-May-25 19:25N 31°27' E 031°46'0 0.0
2015-May-25 18:09N 31°27' E 031°46'0 0.0
2015-May-25 16:27N 31°27' E 031°46'0 0.0
2015-May-25 15:33N 31°27' E 031°46'5 5.0
2015-May-25 14:33N 31°32' E 031°46'7 6.7
2015-May-25 13:33N 31°39' E 031°43'0 0.1
2015-May-25 11:29N 31°38' E 031°43'0 0.0
2015-May-25 10:31N 31°38' E 031°43'0 0.0
2015-May-25 09:19N 31°38' E 031°43'0 0.0
2015-May-25 08:21N 31°38' E 031°43'0 0.0
2015-May-25 07:33N 31°38' E 031°43'0 0.0
2015-May-25 06:33N 31°38' E 031°43'0 0.0
2015-May-25 05:29N 31°38' E 031°43'0 0.0
2015-May-25 04:05N 31°38' E 031°43'0 0.0
2015-May-25 03:31N 31°38' E 031°43'0 0.0
2015-May-25 02:31N 31°38' E 031°43'0 0.0
2015-May-25 01:33N 31°38' E 031°43'0 0.0
2015-May-24 23:30N 31°38' E 031°43'0 0.0
2015-May-24 21:32N 31°38' E 031°43'0 0.0
2015-May-24 20:31N 31°38' E 031°43'0 0.0
2015-May-24 19:31N 31°38' E 031°43'0 0.0
2015-May-24 11:33N 31°38' E 031°43'0 0.0
2015-May-24 09:23N 31°38' E 031°43'0 0.0
2015-May-24 08:32N 31°38' E 031°43'0 0.0
2015-May-24 07:32N 31°38' E 031°43'0 0.0
2015-May-24 06:31N 31°38' E 031°43'0 0.0
2015-May-24 05:25N 31°38' E 031°43'0 0.0
2015-May-24 04:30N 31°38' E 031°43'0 0.0
2015-May-24 01:17N 31°38' E 031°43'0 0.0
2015-May-24 00:20N 31°38' E 031°43'0 0.0
2015-May-23 23:04N 31°38' E 031°43'0 0.1
2015-May-23 22:28N 31°38' E 031°43'0 0.0
2015-May-23 21:33N 31°38' E 031°43'0 0.0
2015-May-23 20:33N 31°38' E 031°43'0 0.0
2015-May-23 19:32N 31°38' E 031°43'0 0.0
2015-May-23 18:32N 31°38' E 031°43'0 0.0
2015-May-23 17:32N 31°38' E 031°43'0 0.0
2015-May-23 16:31N 31°38' E 031°43'0 0.0
2015-May-23 15:31N 31°38' E 031°43'0 0.0
2015-May-23 14:30N 31°38' E 031°43'0 0.0
2015-May-23 13:33N 31°38' E 031°43'0 0.0
2015-May-23 12:32N 31°38' E 031°43'7 7.0
2015-May-23 11:34N 31°45' E 031°41'1413.5
2015-May-23 10:33N 31°56' E 031°31'1211.6
2015-May-23 09:33N 32°04' E 031°22'1612.5
2015-May-23 08:17N 32°16' E 031°09'1512.0
2015-May-23 07:04N 32°28' E 030°58'612.0
2015-May-23 06:33N 32°32' E 030°54'1212.4
2015-May-23 05:33N 32°41' E 030°44'1312.8
2015-May-23 04:33N 32°51' E 030°34'1313.1
2015-May-23 03:33N 33°01' E 030°24'1312.7
2015-May-23 02:33N 33°10' E 030°14'1312.7
2015-May-23 01:33N 33°20' E 030°03'1413.2
2015-May-23 00:32N 33°30' E 029°53'1813.5
2015-May-22 23:14N 33°43' E 029°39'1513.6
2015-May-22 22:08N 33°55' E 029°27'813.6
2015-May-22 21:33N 34°01' E 029°21'13113.1
2015-May-22 11:32N 35°40' E 027°36'1212.7
2015-May-22 10:33N 35°49' E 027°26'4012.7
2015-May-22 07:26N 36°19' E 026°54'1112.8
2015-May-22 06:32N 36°28' E 026°45'1512.7
2015-May-22 05:24N 36°39' E 026°33'1112.7
2015-May-22 04:33N 36°47' E 026°25'1312.6
2015-May-22 03:31N 36°57' E 026°14'1412.6
2015-May-22 02:24N 37°09' E 026°05'1112.8
2015-May-22 01:33N 37°18' E 025°58'1312.7
2015-May-22 00:33N 37°29' E 025°49'1312.6
2015-May-21 23:33N 37°41' E 025°47'  
Track history (hours):
 
Tides and Currents Weather Stations Pressure Air Temp Water Temp Dewpoint Dewpoint Depression Visibility Wind Speed Wind Dir Waves Ship Positions

Karla A

Last reported at 2015-May-28 05:21 UTC. Time now 2015-May-29 00:15 UTC.
Position N 31°53' E 031°42'.

Length 155 m; draft 8.2 m.

Type: Ship (hazmat cat A). MMSI: 271000744.

Date/timePositionNaut miles runAvg speedWind from/ knotsBaromVisibWave heightAir tempDewpointWater temp
2015-May-28 05:21N 31°53' E 031°42'911.3
2015-May-28 04:33N 31°48' E 031°51'1111.3
2015-May-28 03:33N 31°42' E 032°02'1211.8
2015-May-28 02:33N 31°34' E 032°12'1111.1
2015-May-28 01:33N 31°27' E 032°22'1010.4
2015-May-28 00:33N 31°17' E 032°22'4 1.7
2015-May-27 22:16N 31°13' E 032°21'0 0.0
2015-May-27 20:25N 31°13' E 032°21'0 0.0
2015-May-27 18:27N 31°13' E 032°21'0 0.0
2015-May-27 17:32N 31°13' E 032°21'0 0.0
2015-May-27 16:20N 31°13' E 032°21'9 0.8
2015-May-27 05:34N 31°21' E 032°18'0 0.0
2015-May-27 04:33N 31°21' E 032°18'5 4.6
2015-May-27 03:33N 31°17' E 032°20'4 3.3
2015-May-27 02:26N 31°14' E 032°18'0 0.0
2015-May-27 01:32N 31°14' E 032°18'0 0.0
2015-May-27 00:31N 31°14' E 032°18'0 0.0
2015-May-26 23:19N 31°14' E 032°18'0 0.0
2015-May-26 22:28N 31°14' E 032°18'0 0.0
2015-May-26 21:33N 31°14' E 032°18'0 0.0
2015-May-26 20:33N 31°14' E 032°18'0 0.0
2015-May-26 19:23N 31°14' E 032°18'0 0.0
2015-May-26 18:32N 31°14' E 032°18'0 0.0
2015-May-26 17:28N 31°14' E 032°18'0 0.0
2015-May-26 16:25N 31°14' E 032°18'0 0.0
2015-May-26 15:28N 31°14' E 032°18'0 0.0
2015-May-26 14:33N 31°14' E 032°18'0 0.0
2015-May-26 13:24N 31°14' E 032°18'0 0.0
2015-May-26 12:32N 31°14' E 032°18'0 0.0
2015-May-26 11:32N 31°14' E 032°18'3 2.6
2015-May-26 10:34N 31°17' E 032°20'6 5.7
2015-May-26 09:34N 31°22' E 032°22'3 3.0
2015-May-26 08:33N 31°25' E 032°21'7 7.3
2015-May-26 07:34N 31°31' E 032°16'1412.8
2015-May-26 06:29N 31°39' E 032°04'910.0
2015-May-26 05:34N 31°41' E 031°53'1110.6
2015-May-26 04:29N 31°31' E 031°46'4 3.8
2015-May-26 03:31N 31°27' E 031°46'0 0.0
2015-May-26 02:28N 31°27' E 031°46'0 0.0
2015-May-26 01:31N 31°27' E 031°46'0 0.0
2015-May-26 00:15N 31°27' E 031°46'0 0.0
2015-May-25 23:33N 31°27' E 031°46'0 0.0
2015-May-25 20:31N 31°27' E 031°46'0 0.0
2015-May-25 19:25N 31°27' E 031°46'0 0.0
2015-May-25 18:09N 31°27' E 031°46'0 0.0
2015-May-25 16:27N 31°27' E 031°46'0 0.0
2015-May-25 15:33N 31°27' E 031°46'5 5.0
2015-May-25 14:33N 31°32' E 031°46'7 6.7
2015-May-25 13:33N 31°39' E 031°43'0 0.1
2015-May-25 11:29N 31°38' E 031°43'0 0.0
2015-May-25 10:31N 31°38' E 031°43'0 0.0
2015-May-25 09:19N 31°38' E 031°43'0 0.0
2015-May-25 08:21N 31°38' E 031°43'0 0.0
2015-May-25 07:33N 31°38' E 031°43'0 0.0
2015-May-25 06:33N 31°38' E 031°43'0 0.0
2015-May-25 05:29N 31°38' E 031°43'0 0.0
2015-May-25 04:05N 31°38' E 031°43'0 0.0
2015-May-25 03:31N 31°38' E 031°43'0 0.0
2015-May-25 02:31N 31°38' E 031°43'0 0.0
2015-May-25 01:33N 31°38' E 031°43'0 0.0
2015-May-24 23:30N 31°38' E 031°43'0 0.0
2015-May-24 21:32N 31°38' E 031°43'0 0.0
2015-May-24 20:31N 31°38' E 031°43'0 0.0
2015-May-24 19:31N 31°38' E 031°43'0 0.0
2015-May-24 11:33N 31°38' E 031°43'0 0.0
2015-May-24 09:23N 31°38' E 031°43'0 0.0
2015-May-24 08:32N 31°38' E 031°43'0 0.0
2015-May-24 07:32N 31°38' E 031°43'0 0.0
2015-May-24 06:31N 31°38' E 031°43'0 0.0
2015-May-24 05:25N 31°38' E 031°43'0 0.0
2015-May-24 04:30N 31°38' E 031°43'0 0.0
2015-May-24 01:17N 31°38' E 031°43'0 0.0
2015-May-24 00:20N 31°38' E 031°43'0 0.0
2015-May-23 23:04N 31°38' E 031°43'0 0.1
2015-May-23 22:28N 31°38' E 031°43'0 0.0
2015-May-23 21:33N 31°38' E 031°43'0 0.0
2015-May-23 20:33N 31°38' E 031°43'0 0.0
2015-May-23 19:32N 31°38' E 031°43'0 0.0
2015-May-23 18:32N 31°38' E 031°43'0 0.0
2015-May-23 17:32N 31°38' E 031°43'0 0.0
2015-May-23 16:31N 31°38' E 031°43'0 0.0
2015-May-23 15:31N 31°38' E 031°43'0 0.0
2015-May-23 14:30N 31°38' E 031°43'0 0.0
2015-May-23 13:33N 31°38' E 031°43'0 0.0
2015-May-23 12:32N 31°38' E 031°43'7 7.0
2015-May-23 11:34N 31°45' E 031°41'1413.5
2015-May-23 10:33N 31°56' E 031°31'1211.6
2015-May-23 09:33N 32°04' E 031°22'1612.5
2015-May-23 08:17N 32°16' E 031°09'1512.0
2015-May-23 07:04N 32°28' E 030°58'612.0
2015-May-23 06:33N 32°32' E 030°54'1212.4
2015-May-23 05:33N 32°41' E 030°44'1312.8
2015-May-23 04:33N 32°51' E 030°34'1313.1
2015-May-23 03:33N 33°01' E 030°24'1312.7
2015-May-23 02:33N 33°10' E 030°14'1312.7
2015-May-23 01:33N 33°20' E 030°03'1413.2
2015-May-23 00:32N 33°30' E 029°53'1813.5
2015-May-22 23:14N 33°43' E 029°39'1513.6
2015-May-22 22:08N 33°55' E 029°27'813.6
2015-May-22 21:33N 34°01' E 029°21'13113.1
2015-May-22 11:32N 35°40' E 027°36'1212.7
2015-May-22 10:33N 35°49' E 027°26'4012.7
2015-May-22 07:26N 36°19' E 026°54'1112.8
2015-May-22 06:32N 36°28' E 026°45'1512.7
2015-May-22 05:24N 36°39' E 026°33'1112.7
2015-May-22 04:33N 36°47' E 026°25'1312.6
2015-May-22 03:31N 36°57' E 026°14'1412.6
2015-May-22 02:24N 37°09' E 026°05'1112.8
2015-May-22 01:33N 37°18' E 025°58'1312.7
2015-May-22 00:33N 37°29' E 025°49'1312.6
2015-May-21 23:33N 37°41' E 025°47'  

Dump ship's entire track history